createdAt,value
2019-05-20T00:00:50.924Z,97447.91
2019-05-20T00:03:19.654Z,97443.62
2019-05-20T00:05:48.541Z,97437.20
2019-05-20T00:08:17.365Z,97438.34
2019-05-20T00:10:46.144Z,97431.52
2019-05-20T00:13:14.859Z,97434.44
2019-05-20T00:15:43.652Z,97431.63
2019-05-20T00:18:12.421Z,97428.70
2019-05-20T00:20:41.219Z,97424.72
2019-05-20T00:23:09.945Z,97427.95
2019-05-20T00:25:38.764Z,97427.95
2019-05-20T00:28:07.504Z,97430.05
2019-05-20T00:30:36.334Z,97428.19
2019-05-20T00:33:05.367Z,97425.33
2019-05-20T00:35:34.226Z,97434.39
2019-05-20T00:38:02.957Z,97433.37
2019-05-20T00:40:31.688Z,97435.27
2019-05-20T00:43:00.431Z,97433.55
2019-05-20T00:45:29.246Z,97442.36
2019-05-20T00:47:57.967Z,97427.21
2019-05-20T00:50:26.712Z,97429.36
2019-05-20T00:52:55.530Z,97424.39
2019-05-20T00:55:26.126Z,97429.98
2019-05-20T00:57:54.936Z,97439.08
2019-05-20T01:00:24.216Z,97448.84
2019-05-20T01:02:57.021Z,97445.28
2019-05-20T01:05:23.527Z,97446.81
2019-05-20T01:07:52.278Z,97449.72
2019-05-20T01:10:21.193Z,97445.03
2019-05-20T01:12:50.010Z,97443.27
2019-05-20T01:15:19.185Z,97446.19
2019-05-20T01:17:47.934Z,97446.95
2019-05-20T01:20:17.273Z,97449.53
2019-05-20T01:22:46.028Z,97447.14
2019-05-20T01:25:14.884Z,97445.61
2019-05-20T01:27:43.622Z,97446.08
2019-05-20T01:30:13.107Z,97443.08
2019-05-20T01:32:42.227Z,97442.83
2019-05-20T01:35:12.713Z,97438.81
2019-05-20T01:37:41.688Z,97438.11
2019-05-20T01:40:10.768Z,97434.28
2019-05-20T01:42:39.584Z,97440.66
2019-05-20T01:45:08.845Z,97430.30
2019-05-20T01:47:37.635Z,97431.84
2019-05-20T01:50:06.686Z,97431.01
2019-05-20T01:52:35.462Z,97433.03
2019-05-20T01:55:04.621Z,97436.34
2019-05-20T01:57:33.398Z,97435.53
2019-05-20T02:00:02.134Z,97434.38
2019-05-20T02:02:31.201Z,97427.35
2019-05-20T02:05:00.032Z,97426.34
2019-05-20T02:07:28.803Z,97429.52
2019-05-20T02:09:57.799Z,97430.98
2019-05-20T02:12:26.538Z,97428.94
2019-05-20T02:15:01.063Z,97431.38
2019-05-20T02:17:29.839Z,97423.92
2019-05-20T02:19:58.580Z,97426.03
2019-05-20T02:22:27.360Z,97429.16
2019-05-20T02:24:56.131Z,97424.48
2019-05-20T02:27:24.943Z,97422.39
2019-05-20T02:29:53.698Z,97419.50
2019-05-20T02:32:22.420Z,97416.02
2019-05-20T02:34:51.190Z,97421.05
2019-05-20T02:37:20.013Z,97422.90
2019-05-20T02:39:48.757Z,97420.09
2019-05-20T02:42:17.655Z,97421.16
2019-05-20T02:44:46.471Z,97416.87
2019-05-20T02:47:15.199Z,97413.34
2019-05-20T02:49:44.026Z,97416.23
2019-05-20T02:52:12.757Z,97419.16
2019-05-20T02:54:41.777Z,97421.65
2019-05-20T02:57:10.569Z,97414.50
2019-05-20T02:59:39.576Z,97419.59
2019-05-20T03:02:08.311Z,97415.96
2019-05-20T03:04:37.495Z,97414.17
2019-05-20T03:07:06.453Z,97407.94
2019-05-20T03:09:35.361Z,97414.30
2019-05-20T03:12:04.173Z,97413.80
2019-05-20T03:14:32.915Z,97414.78
2019-05-20T03:17:01.700Z,97410.61
2019-05-20T03:19:30.478Z,97410.22
2019-05-20T03:21:59.191Z,97408.20
2019-05-20T03:24:27.943Z,97407.41
2019-05-20T03:26:56.674Z,97414.23
2019-05-20T03:29:25.561Z,97418.73
2019-05-20T03:31:54.507Z,97414.75
2019-05-20T03:34:43.542Z,97411.88
2019-05-20T03:36:53.723Z,97414.00
2019-05-20T03:39:22.619Z,97415.66
2019-05-20T03:41:51.454Z,97413.17
2019-05-20T03:44:20.209Z,97405.77
2019-05-20T03:46:49.218Z,97411.40
2019-05-20T03:49:18.073Z,97408.08
2019-05-20T03:51:46.833Z,97409.65
2019-05-20T03:54:15.651Z,97406.66
2019-05-20T03:56:44.394Z,97404.04
2019-05-20T03:59:13.198Z,97409.89
2019-05-20T04:01:41.970Z,97408.08
2019-05-20T04:04:10.713Z,97407.53
2019-05-20T04:06:39.451Z,97403.78
2019-05-20T04:09:08.367Z,97404.92
2019-05-20T04:11:37.302Z,97403.91
2019-05-20T04:14:06.115Z,97401.66
2019-05-20T04:16:34.971Z,97400.86
2019-05-20T04:19:04.009Z,97406.55
2019-05-20T04:21:32.793Z,97402.56
2019-05-20T04:24:02.210Z,97401.66
2019-05-20T04:26:31.137Z,97407.25
2019-05-20T04:28:59.866Z,97401.84
2019-05-20T04:31:28.607Z,97411.00
2019-05-20T04:33:57.479Z,97417.00
2019-05-20T04:36:26.312Z,97411.87
2019-05-20T04:38:58.001Z,97405.31
2019-05-20T04:41:26.788Z,97403.47
2019-05-20T04:43:55.526Z,97406.94
2019-05-20T04:46:24.439Z,97401.81
2019-05-20T04:48:53.157Z,97402.20
2019-05-20T04:51:21.898Z,97397.52
2019-05-20T04:53:50.655Z,97402.30
2019-05-20T04:56:19.531Z,97399.30
2019-05-20T04:58:48.327Z,97397.42
2019-05-20T05:01:17.133Z,97397.81
2019-05-20T05:03:45.857Z,97387.67
2019-05-20T05:06:14.919Z,97390.55
2019-05-20T05:08:43.784Z,97390.45
2019-05-20T05:11:12.783Z,97388.54
2019-05-20T05:13:41.655Z,97390.52
2019-05-20T05:16:10.573Z,97395.00
2019-05-20T05:18:39.381Z,97402.58
2019-05-20T05:21:08.300Z,97400.69
2019-05-20T05:23:37.189Z,97402.06
2019-05-20T05:26:06.427Z,97407.62
2019-05-20T05:28:35.403Z,97406.61
2019-05-20T05:31:04.161Z,97412.33
2019-05-20T05:33:33.473Z,97408.06
2019-05-20T05:36:02.222Z,97410.13
2019-05-20T05:38:31.027Z,97410.13
2019-05-20T05:40:59.785Z,97408.19
2019-05-20T05:43:28.663Z,97399.06
2019-05-20T05:45:57.758Z,97406.84
2019-05-20T05:48:26.496Z,97414.73
2019-05-20T05:50:55.245Z,97410.47
2019-05-20T05:53:23.961Z,97414.72
2019-05-20T05:55:52.808Z,97410.37
2019-05-20T05:58:21.527Z,97405.09
2019-05-20T06:00:50.272Z,97406.97
2019-05-20T06:03:19.068Z,97418.02
2019-05-20T06:05:47.901Z,97414.81
2019-05-20T06:08:16.638Z,97417.52
2019-05-20T06:10:45.377Z,97420.11
2019-05-20T06:13:14.247Z,97424.46
2019-05-20T06:15:42.974Z,97419.91
2019-05-20T06:18:11.724Z,97421.12
2019-05-20T06:20:40.661Z,97418.33
2019-05-20T06:23:09.517Z,97415.74
2019-05-20T06:25:38.213Z,97422.36
2019-05-20T06:28:06.954Z,97413.98
2019-05-20T06:30:38.910Z,97414.70
2019-05-20T06:33:07.743Z,97422.27
2019-05-20T06:35:36.962Z,97421.53
2019-05-20T06:38:09.315Z,97423.20
2019-05-20T06:40:38.286Z,97429.91
2019-05-20T06:43:07.183Z,97433.27
2019-05-20T06:45:35.926Z,97439.15
2019-05-20T06:48:04.862Z,97437.20
2019-05-20T06:50:33.736Z,97433.88
2019-05-20T06:53:02.625Z,97436.06
2019-05-20T06:55:31.485Z,97435.23
2019-05-20T06:58:00.370Z,97432.63
2019-05-20T07:00:37.117Z,97436.91
2019-05-20T07:03:06.202Z,97434.09
2019-05-20T07:05:35.210Z,97433.46
2019-05-20T07:08:04.116Z,97435.10
2019-05-20T07:10:33.447Z,97429.05
2019-05-20T07:13:02.335Z,97435.72
2019-05-20T07:15:31.106Z,97436.23
2019-05-20T07:18:00.165Z,97430.02
2019-05-20T07:20:28.972Z,97431.61
2019-05-20T07:22:57.749Z,97431.11
2019-05-20T07:25:26.555Z,97426.66
2019-05-20T07:27:55.324Z,97429.22
2019-05-20T07:30:24.138Z,97431.00
2019-05-20T07:32:52.967Z,97428.72
2019-05-20T07:35:30.057Z,97433.92
2019-05-20T07:37:52.196Z,97433.45
2019-05-20T07:40:31.139Z,97426.41
2019-05-20T07:42:59.964Z,97423.95
2019-05-20T07:45:30.710Z,97420.95
2019-05-20T07:47:59.752Z,97427.03
2019-05-20T07:50:29.424Z,97423.14
2019-05-20T07:53:00.534Z,97418.11
2019-05-20T07:55:32.861Z,97417.44
2019-05-20T07:58:05.901Z,97425.00
2019-05-20T08:00:34.902Z,97423.11
2019-05-20T08:03:04.398Z,97419.22
2019-05-20T08:05:33.279Z,97415.84
2019-05-20T08:08:02.081Z,97421.23
2019-05-20T08:10:30.934Z,97418.98
2019-05-20T08:13:00.105Z,97414.47
2019-05-20T08:15:28.948Z,97414.92
2019-05-20T08:17:57.773Z,97420.63
2019-05-20T08:20:26.663Z,97405.19
2019-05-20T08:22:55.494Z,97414.94
2019-05-20T08:25:24.236Z,97407.73
2019-05-20T08:27:53.124Z,97412.45
2019-05-20T08:30:32.123Z,97415.39
2019-05-20T08:33:01.166Z,97411.80
2019-05-20T08:35:29.906Z,97416.52
2019-05-20T08:37:58.819Z,97415.63
2019-05-20T08:40:27.666Z,97419.00
2019-05-20T08:42:56.391Z,97421.03
2019-05-20T08:45:25.435Z,97427.25
2019-05-20T08:47:54.228Z,97409.41
2019-05-20T08:50:23.027Z,97409.06
2019-05-20T08:52:51.894Z,97413.81
2019-05-20T08:55:21.147Z,97415.02
2019-05-20T08:57:50.110Z,97420.19
2019-05-20T09:00:23.428Z,97418.55
2019-05-20T09:02:51.890Z,97419.73
2019-05-20T09:05:20.860Z,97407.03
2019-05-20T09:08:02.119Z,97401.94
2019-05-20T09:10:21.373Z,97408.34
2019-05-20T09:12:50.129Z,97402.30
2019-05-20T09:15:19.292Z,97409.20
2019-05-20T09:17:48.096Z,97408.31
2019-05-20T09:20:17.192Z,97403.14
2019-05-20T09:22:45.933Z,97410.97
2019-05-20T09:25:15.154Z,97407.03
2019-05-20T09:27:43.848Z,97407.17
2019-05-20T09:30:13.436Z,97407.41
2019-05-20T09:32:43.309Z,97404.53
2019-05-20T09:35:12.387Z,97414.33
2019-05-20T09:37:41.114Z,97399.19
2019-05-20T09:40:10.505Z,97400.19
2019-05-20T09:42:40.976Z,97402.67
2019-05-20T09:45:10.130Z,97399.05
2019-05-20T09:47:38.942Z,97396.81
2019-05-20T09:50:08.106Z,97391.88
2019-05-20T09:52:37.016Z,97386.97
2019-05-20T09:55:06.065Z,97388.11
2019-05-20T09:57:34.879Z,97398.85
2019-05-20T10:00:03.828Z,97393.13
2019-05-20T10:02:37.825Z,97395.47
2019-05-20T10:05:04.091Z,97402.61
2019-05-20T10:07:32.892Z,97396.07
2019-05-20T10:10:01.759Z,97394.36
2019-05-20T10:12:45.262Z,97394.31
2019-05-20T10:15:01.077Z,97400.84
2019-05-20T10:17:29.850Z,97400.27
2019-05-20T10:19:59.386Z,97388.81
2019-05-20T10:22:28.193Z,97400.34
2019-05-20T10:24:56.903Z,97393.42
2019-05-20T10:27:25.913Z,97394.14
2019-05-20T10:29:54.656Z,97387.70
2019-05-20T10:32:23.515Z,97391.48
2019-05-20T10:34:52.643Z,97394.68
2019-05-20T10:37:21.429Z,97393.85
2019-05-20T10:39:50.161Z,97397.73
2019-05-20T10:42:19.117Z,97401.03
2019-05-20T10:44:47.816Z,97399.56
2019-05-20T10:47:16.548Z,97401.03
2019-05-20T10:49:45.266Z,97392.38
2019-05-20T10:52:14.023Z,97392.40
2019-05-20T10:54:42.752Z,97388.62
2019-05-20T10:57:11.508Z,97396.78
2019-05-20T10:59:40.309Z,97394.97
2019-05-20T11:02:09.132Z,97389.64
2019-05-20T11:04:37.917Z,97395.15
2019-05-20T11:07:06.647Z,97393.31
2019-05-20T11:09:35.408Z,97393.55
2019-05-20T11:12:04.213Z,97397.96
2019-05-20T11:14:32.975Z,97400.11
2019-05-20T11:17:01.982Z,97394.63
2019-05-20T11:19:30.716Z,97395.25
2019-05-20T11:21:59.505Z,97393.86
2019-05-20T11:24:28.244Z,97387.31
2019-05-20T11:26:57.099Z,97393.01
2019-05-20T11:29:25.832Z,97388.06
2019-05-20T11:31:54.646Z,97389.47
2019-05-20T11:34:23.446Z,97390.81
2019-05-20T11:36:52.350Z,97386.25
2019-05-20T11:39:32.580Z,97382.37
2019-05-20T11:41:53.762Z,97375.34
2019-05-20T11:44:22.203Z,97372.84
2019-05-20T11:46:51.027Z,97374.62
2019-05-20T11:49:19.742Z,97363.28
2019-05-20T11:51:48.556Z,97357.74
2019-05-20T11:54:17.297Z,97355.47
2019-05-20T11:56:46.100Z,97358.81
2019-05-20T11:59:14.825Z,97362.11
2019-05-20T12:01:43.830Z,97358.62
2019-05-20T12:04:12.560Z,97354.80
2019-05-20T12:06:41.562Z,97355.81
2019-05-20T12:09:10.357Z,97347.09
2019-05-20T12:11:39.093Z,97345.04
2019-05-20T12:14:07.891Z,97351.25
2019-05-20T12:16:36.671Z,97345.12
2019-05-20T12:19:05.485Z,97340.14
2019-05-20T12:21:34.230Z,97336.89
2019-05-20T12:24:03.096Z,97362.31
2019-05-20T12:26:31.848Z,97346.64
2019-05-20T12:29:00.587Z,97334.92
2019-05-20T12:31:29.314Z,97345.42
2019-05-20T12:33:58.174Z,97349.20
2019-05-20T12:36:26.904Z,97345.66
2019-05-20T12:38:55.656Z,97345.78
2019-05-20T12:41:24.415Z,97335.56
2019-05-20T12:44:10.106Z,97330.21
2019-05-20T12:46:23.851Z,97337.81
2019-05-20T12:48:52.700Z,97334.18
2019-05-20T12:51:21.483Z,97339.58
2019-05-20T12:53:50.241Z,97332.16
2019-05-20T12:56:19.890Z,97334.77
2019-05-20T12:58:48.721Z,97325.41
2019-05-20T13:01:17.454Z,97323.27
2019-05-20T13:03:46.204Z,97323.13
2019-05-20T13:06:14.994Z,97330.12
2019-05-20T13:08:43.865Z,97316.09
2019-05-20T13:11:12.585Z,97300.64
2019-05-20T13:13:41.400Z,97318.06
2019-05-20T13:16:10.233Z,97322.16
2019-05-20T13:18:54.648Z,97307.50
2019-05-20T13:21:10.034Z,97304.75
2019-05-20T13:23:38.782Z,97311.52
2019-05-20T13:26:07.536Z,97315.47
2019-05-20T13:28:36.311Z,97339.75
2019-05-20T13:31:05.110Z,97329.14
2019-05-20T13:33:33.843Z,97321.77
2019-05-20T13:36:02.657Z,97309.44
2019-05-20T13:38:31.409Z,97329.27
2019-05-20T13:41:00.147Z,97331.57
2019-05-20T13:43:28.931Z,97310.85
2019-05-20T13:45:57.655Z,97314.19
2019-05-20T13:48:26.495Z,97318.41
2019-05-20T13:50:55.213Z,97310.83
2019-05-20T13:53:24.054Z,97292.88
2019-05-20T13:55:52.789Z,97291.91
2019-05-20T13:58:21.519Z,97290.73
2019-05-20T14:00:50.272Z,97289.33
2019-05-20T14:03:19.427Z,97283.26
2019-05-20T14:05:48.162Z,97283.60
2019-05-20T14:08:16.889Z,97287.52
2019-05-20T14:11:01.293Z,97279.08
2019-05-20T14:13:16.126Z,97287.45
2019-05-20T14:15:44.873Z,97275.67
2019-05-20T14:18:13.605Z,97279.14
2019-05-20T14:20:42.452Z,97273.11
2019-05-20T14:23:12.939Z,97276.24
2019-05-20T14:25:42.590Z,97269.34
2019-05-20T14:28:11.574Z,97291.07
2019-05-20T14:30:40.542Z,97272.87
2019-05-20T14:33:09.417Z,97270.52
2019-05-20T14:35:45.124Z,97259.26
2019-05-20T14:38:25.989Z,97258.76
2019-05-20T14:41:00.982Z,97259.40
2019-05-20T14:43:35.983Z,97253.39
2019-05-20T14:46:00.423Z,97244.53
2019-05-20T14:48:29.343Z,97260.94
2019-05-20T14:51:08.493Z,97263.06
2019-05-20T14:53:37.420Z,97258.55
2019-05-20T14:56:06.442Z,97274.42
2019-05-20T14:58:35.291Z,97271.63
2019-05-20T15:01:18.374Z,97282.82
2019-05-20T15:03:47.244Z,97279.73
2019-05-20T15:06:16.424Z,97283.56
2019-05-20T15:08:45.271Z,97288.89
2019-05-20T15:11:15.401Z,97271.37
2019-05-20T15:13:44.247Z,97269.59
2019-05-20T15:16:13.341Z,97259.25
2019-05-20T15:18:42.541Z,97260.37
2019-05-20T15:21:11.498Z,97267.28
2019-05-20T15:23:49.338Z,97271.00
2019-05-20T15:26:33.237Z,97270.52
2019-05-20T15:29:03.239Z,97276.67
2019-05-20T15:31:49.776Z,97296.59
2019-05-20T15:34:25.150Z,97312.45
2019-05-20T15:36:54.602Z,97312.16
2019-05-20T15:39:23.828Z,97314.74
2019-05-20T15:41:59.796Z,97317.05
2019-05-20T15:44:28.652Z,97314.69
2019-05-20T15:46:57.403Z,97312.73
2019-05-20T15:49:26.530Z,97319.64
2019-05-20T15:51:55.372Z,97319.41
2019-05-20T15:54:25.633Z,97325.57
2019-05-20T15:56:55.908Z,97345.39
2019-05-20T15:59:25.065Z,97360.63
2019-05-20T16:02:06.675Z,97371.80
2019-05-20T16:04:35.563Z,97362.88
2019-05-20T16:07:07.911Z,97359.95
2019-05-20T16:09:36.938Z,97364.58
2019-05-20T16:12:06.014Z,97367.84
2019-05-20T16:14:35.097Z,97365.73
2019-05-20T16:17:04.072Z,97357.62
2019-05-20T16:19:32.890Z,97348.05
2019-05-20T16:22:01.880Z,97351.58
2019-05-20T16:24:38.400Z,97351.41
2019-05-20T16:27:10.265Z,97373.75
2019-05-20T16:29:41.696Z,97363.21
2019-05-20T16:32:13.893Z,97361.48
2019-05-20T16:34:50.431Z,97375.27
2019-05-20T16:37:21.304Z,97373.31
2019-05-20T16:39:56.699Z,97348.24
2019-05-20T16:42:25.641Z,97361.83
2019-05-20T16:44:54.629Z,97373.52
2019-05-20T16:48:03.749Z,97387.25
2019-05-20T16:50:37.860Z,97390.58
2019-05-20T16:53:00.114Z,97392.47
2019-05-20T17:01:16.649Z,97409.31
2019-05-20T17:03:45.807Z,97414.09
2019-05-20T17:06:14.893Z,97421.34
2019-05-20T17:08:43.890Z,97420.62
2019-05-20T17:11:12.779Z,97410.00
2019-05-20T17:13:41.678Z,97411.63
2019-05-20T17:16:12.063Z,97412.13
2019-05-20T17:18:56.037Z,97415.23
2019-05-20T17:21:16.050Z,97410.80
2019-05-20T17:23:59.063Z,97410.47
2019-05-20T17:26:28.236Z,97421.35
2019-05-20T17:29:01.201Z,97419.48
2019-05-20T17:31:30.907Z,97430.86
2019-05-20T17:34:00.056Z,97436.09
2019-05-20T17:36:44.545Z,97429.86
2019-05-20T17:39:24.873Z,97447.34
2019-05-20T17:41:53.953Z,97431.05
2019-05-20T17:44:22.801Z,97438.59
2019-05-20T17:46:51.709Z,97448.36
2019-05-20T17:49:20.422Z,97457.09
2019-05-20T17:51:49.320Z,97462.58
2019-05-20T17:54:18.599Z,97468.36
2019-05-20T17:56:47.494Z,97455.33
2019-05-20T17:59:16.592Z,97451.92
2019-05-20T18:01:45.492Z,97456.63
2019-05-20T18:04:14.295Z,97459.05
2019-05-20T18:06:42.998Z,97450.36
2019-05-20T18:09:42.337Z,97443.70
2019-05-20T18:12:40.298Z,97446.33
2019-05-20T18:15:08.219Z,97452.80
2019-05-20T18:18:17.297Z,97438.13
2019-05-20T18:20:46.144Z,97439.42
2019-05-20T18:23:15.081Z,97434.91
2019-05-20T18:26:11.632Z,97431.51
2019-05-20T18:29:07.003Z,97430.88
2019-05-20T18:31:35.832Z,97430.05
2019-05-20T18:34:04.750Z,97426.75
2019-05-20T18:36:43.817Z,97433.56
2019-05-20T18:39:12.683Z,97435.64
2019-05-20T18:41:41.518Z,97431.20
2019-05-20T18:44:13.202Z,97436.05
2019-05-20T18:46:40.759Z,97438.64
2019-05-20T18:49:09.552Z,97432.22
2019-05-20T18:51:38.318Z,97429.44
2019-05-20T18:54:07.128Z,97423.34
2019-05-20T18:56:35.891Z,97421.06
2019-05-20T18:59:05.083Z,97413.09
2019-05-20T19:01:46.082Z,97414.70
2019-05-20T19:04:04.369Z,97417.95
2019-05-20T19:06:33.139Z,97420.02
2019-05-20T19:09:01.924Z,97417.55
2019-05-20T19:11:30.828Z,97418.41
2019-05-20T19:14:00.412Z,97421.48
2019-05-20T19:16:29.232Z,97421.98
2019-05-20T19:19:04.585Z,97427.02
2019-05-20T19:21:33.312Z,97427.01
2019-05-20T19:24:02.173Z,97424.95
2019-05-20T19:26:31.055Z,97425.56
2019-05-20T19:28:59.928Z,97421.73
2019-05-20T19:31:28.681Z,97426.50
2019-05-20T19:33:57.503Z,97423.13
2019-05-20T19:36:26.279Z,97425.36
2019-05-20T19:38:55.043Z,97429.38
2019-05-20T19:41:23.941Z,97434.61
2019-05-20T19:43:52.767Z,97443.84
2019-05-20T19:46:21.605Z,97456.89
2019-05-20T19:48:50.371Z,97456.83
2019-05-20T19:51:19.311Z,97450.67
2019-05-20T19:53:48.033Z,97443.19
2019-05-20T19:56:16.847Z,97458.94
2019-05-20T19:58:45.588Z,97453.89
2019-05-20T20:01:14.352Z,97467.33
2019-05-20T20:03:43.069Z,97470.74
2019-05-20T20:06:11.985Z,97474.59
2019-05-20T20:08:40.801Z,97462.56
2019-05-20T20:11:09.707Z,97461.84
2019-05-20T20:13:38.388Z,97459.97
2019-05-20T20:16:07.309Z,97460.11
2019-05-20T20:18:36.090Z,97462.20
2019-05-20T20:21:04.941Z,97462.49
2019-05-20T20:23:33.734Z,97453.75
2019-05-20T20:26:02.749Z,97453.69
2019-05-20T20:28:31.444Z,97444.09
2019-05-20T20:31:00.204Z,97442.88
2019-05-20T20:33:28.957Z,97427.05
2019-05-20T20:35:57.720Z,97427.67
2019-05-20T20:38:26.494Z,97429.53
2019-05-20T20:40:55.243Z,97421.47
2019-05-20T20:43:23.959Z,97418.97
2019-05-20T20:45:52.722Z,97415.77
2019-05-20T20:48:29.569Z,97418.88
2019-05-20T20:50:58.289Z,97421.86
2019-05-20T20:53:27.117Z,97420.75
2019-05-20T20:55:55.957Z,97427.14
2019-05-20T20:58:24.677Z,97432.92
2019-05-20T21:00:53.541Z,97424.16
2019-05-20T21:03:22.272Z,97424.45
2019-05-20T21:05:51.037Z,97433.25
2019-05-20T21:08:19.937Z,97430.55
2019-05-20T21:10:48.745Z,97419.39
2019-05-20T21:13:17.456Z,97420.00
2019-05-20T21:15:48.086Z,97415.61
2019-05-20T21:18:16.804Z,97417.89
2019-05-20T21:20:45.635Z,97420.58
2019-05-20T21:23:14.420Z,97415.38
2019-05-20T21:25:43.225Z,97422.95
2019-05-20T21:28:11.975Z,97425.01
2019-05-20T21:30:40.808Z,97432.84
2019-05-20T21:33:09.926Z,97421.78
2019-05-20T21:35:38.813Z,97416.24
2019-05-20T21:38:07.601Z,97410.02
2019-05-20T21:40:36.419Z,97411.75
2019-05-20T21:43:05.815Z,97404.78
2019-05-20T21:45:34.601Z,97410.78
2019-05-20T21:48:03.304Z,97402.37
2019-05-20T21:50:32.206Z,97404.84
2019-05-20T21:53:00.918Z,97404.38
2019-05-20T21:55:29.655Z,97399.67
2019-05-20T21:57:58.428Z,97400.70
2019-05-20T22:00:33.685Z,97406.07
2019-05-20T22:03:02.465Z,97401.23
2019-05-20T22:05:31.163Z,97392.27
2019-05-20T22:07:59.949Z,97388.13
2019-05-20T22:10:28.776Z,97387.33
2019-05-20T22:12:57.530Z,97385.36
2019-05-20T22:15:26.365Z,97380.62
2019-05-20T22:17:55.260Z,97371.73
2019-05-20T22:20:23.996Z,97373.48
2019-05-20T22:23:10.533Z,97372.16
2019-05-20T22:25:39.265Z,97365.78
2019-05-20T22:28:08.097Z,97345.95
2019-05-20T22:30:36.821Z,97354.53
2019-05-20T22:33:05.593Z,97359.29
2019-05-20T22:35:34.371Z,97351.84
2019-05-20T22:38:03.082Z,97340.33
2019-05-20T22:40:31.975Z,97341.41
2019-05-20T22:43:02.789Z,97333.98
2019-05-20T22:45:31.745Z,97330.63
2019-05-20T22:48:00.558Z,97329.69
2019-05-20T22:50:29.382Z,97331.74
2019-05-20T22:52:58.424Z,97322.34
2019-05-20T22:55:27.159Z,97317.37
2019-05-20T22:57:55.890Z,97311.08
2019-05-20T23:00:24.761Z,97309.48
2019-05-20T23:02:53.601Z,97311.59
2019-05-20T23:05:22.303Z,97308.81
2019-05-20T23:07:51.089Z,97307.58
2019-05-20T23:10:20.021Z,97308.73
2019-05-20T23:12:48.848Z,97309.18
2019-05-20T23:15:17.601Z,97304.02
2019-05-20T23:17:46.349Z,97300.41
2019-05-20T23:20:15.074Z,97293.65
2019-05-20T23:22:43.841Z,97299.73
2019-05-20T23:25:12.652Z,97297.20
2019-05-20T23:27:41.393Z,97302.84
2019-05-20T23:30:10.654Z,97309.40
2019-05-20T23:32:39.427Z,97293.70
2019-05-20T23:35:08.620Z,97286.05
2019-05-20T23:37:37.446Z,97289.55
2019-05-20T23:40:06.445Z,97290.17
2019-05-20T23:42:35.176Z,97287.95
2019-05-20T23:45:04.335Z,97290.23
2019-05-20T23:47:33.079Z,97282.23
2019-05-20T23:50:01.850Z,97285.64
2019-05-20T23:52:30.712Z,97282.98
2019-05-20T23:54:59.438Z,97278.33
2019-05-20T23:57:28.184Z,97276.05
2019-05-20T23:59:56.927Z,97279.90
